createdAt,value
2022-08-05T00:01:28.982Z,20.90
2022-08-05T00:03:57.234Z,20.80
2022-08-05T00:06:28.949Z,20.90
2022-08-05T00:09:00.297Z,20.80
2022-08-05T00:11:34.826Z,20.70
2022-08-05T00:14:16.927Z,20.70
2022-08-05T00:16:52.548Z,20.80
2022-08-05T00:19:22.233Z,20.70
2022-08-05T00:21:49.827Z,20.70
2022-08-05T00:24:19.161Z,20.80
2022-08-05T00:26:52.945Z,20.70
2022-08-05T00:29:22.578Z,20.70
2022-08-05T00:32:12.197Z,20.70
2022-08-05T00:34:56.799Z,20.70
2022-08-05T00:37:35.640Z,20.70
2022-08-05T00:40:14.391Z,20.70
2022-08-05T00:42:48.160Z,20.70
2022-08-05T00:45:16.171Z,20.70
2022-08-05T00:47:57.835Z,20.60
2022-08-05T00:50:32.554Z,20.60
2022-08-05T00:52:59.311Z,20.60
2022-08-05T00:55:34.009Z,20.50
2022-08-05T00:58:13.279Z,20.50
2022-08-05T01:00:40.793Z,20.50
2022-08-05T01:03:10.601Z,20.50
2022-08-05T01:05:49.182Z,20.50
2022-08-05T01:08:30.705Z,20.50
2022-08-05T01:11:36.879Z,20.40
2022-08-05T01:14:27.729Z,20.40
2022-08-05T01:17:03.218Z,20.40
2022-08-05T01:20:01.638Z,20.40
2022-08-05T01:22:52.167Z,20.30
2022-08-05T01:25:53.304Z,20.30
2022-08-05T01:28:25.988Z,20.30
2022-08-05T01:31:09.434Z,20.30
2022-08-05T01:33:53.620Z,20.30
2022-08-05T01:36:28.447Z,20.30
2022-08-05T01:38:56.363Z,20.30
2022-08-05T01:41:25.493Z,20.20
2022-08-05T01:43:53.450Z,20.20
2022-08-05T01:46:43.073Z,20.20
2022-08-05T01:49:23.096Z,20.20
2022-08-05T01:51:58.324Z,20.20
2022-08-05T01:54:32.852Z,20.20
2022-08-05T01:58:14.638Z,20.20
2022-08-05T01:59:49.068Z,20.20
2022-08-05T02:02:17.818Z,20.20
2022-08-05T02:04:46.387Z,20.20
2022-08-05T02:07:21.955Z,20.20
2022-08-05T02:09:51.091Z,20.20
2022-08-05T02:12:39.280Z,20.10
2022-08-05T02:15:15.610Z,20.10
2022-08-05T02:18:31.767Z,20.10
2022-08-05T02:20:59.056Z,20.00
2022-08-05T02:23:33.779Z,20.00
2022-08-05T02:26:06.075Z,20.00
2022-08-05T02:28:41.654Z,19.90
2022-08-05T02:31:21.051Z,19.90
2022-08-05T02:33:57.757Z,19.90
2022-08-05T02:36:27.420Z,19.90
2022-08-05T02:38:56.817Z,19.90
2022-08-05T02:41:28.746Z,19.80
2022-08-05T02:44:12.104Z,19.80
2022-08-05T02:46:53.311Z,19.80
2022-08-05T02:49:36.893Z,19.80
2022-08-05T02:52:07.950Z,19.80
2022-08-05T02:54:37.583Z,19.70
2022-08-05T02:58:11.014Z,19.80
2022-08-05T02:59:57.549Z,19.80
2022-08-05T03:02:29.889Z,19.80
2022-08-05T03:04:59.215Z,19.80
2022-08-05T03:08:00.291Z,19.70
2022-08-05T03:10:22.112Z,19.70
2022-08-05T03:12:53.939Z,19.70
2022-08-05T03:15:23.996Z,19.70
2022-08-05T03:17:56.040Z,19.70
2022-08-05T03:20:24.729Z,19.70
2022-08-05T03:22:52.572Z,19.70
2022-08-05T03:26:02.584Z,19.70
2022-08-05T03:28:10.544Z,19.70
2022-08-05T03:30:41.119Z,19.60
2022-08-05T03:33:09.324Z,19.60
2022-08-05T03:35:41.658Z,19.60
2022-08-05T03:38:14.578Z,19.60
2022-08-05T03:40:47.309Z,19.60
2022-08-05T03:44:09.796Z,19.60
2022-08-05T03:46:04.763Z,19.60
2022-08-05T03:48:35.083Z,19.60
2022-08-05T03:52:48.929Z,19.60
2022-08-05T03:55:52.187Z,19.60
2022-08-05T03:57:16.398Z,19.60
2022-08-05T03:59:54.794Z,19.60
2022-08-05T04:02:38.905Z,19.60
2022-08-05T04:05:13.259Z,19.60
2022-08-05T04:07:57.096Z,19.70
2022-08-05T04:10:28.288Z,19.70
2022-08-05T04:12:59.227Z,19.70
2022-08-05T04:15:27.737Z,19.70
2022-08-05T04:18:02.845Z,19.70
2022-08-05T04:20:29.838Z,19.60
2022-08-05T04:22:58.438Z,19.70
2022-08-05T04:25:56.714Z,19.60
2022-08-05T04:28:12.986Z,19.60
2022-08-05T04:30:39.856Z,19.70
2022-08-05T04:33:09.618Z,19.70
2022-08-05T04:36:11.393Z,19.70
2022-08-05T04:38:22.975Z,19.70
2022-08-05T04:41:07.351Z,19.70
2022-08-05T04:43:37.065Z,19.70
2022-08-05T04:46:04.553Z,19.70
2022-08-05T04:48:32.092Z,19.70
2022-08-05T04:51:01.623Z,19.70
2022-08-05T04:53:33.311Z,19.70
2022-08-05T04:56:33.608Z,19.70
2022-08-05T04:58:49.351Z,19.70
2022-08-05T05:01:33.352Z,19.60
2022-08-05T05:04:00.563Z,19.60
2022-08-05T05:06:38.725Z,19.50
2022-08-05T05:09:07.554Z,19.40
2022-08-05T05:11:53.999Z,19.40
2022-08-05T05:14:27.937Z,19.40
2022-08-05T05:17:02.145Z,19.40
2022-08-05T05:19:37.044Z,19.40
2022-08-05T05:22:23.549Z,19.40
2022-08-05T05:24:56.757Z,19.40
2022-08-05T05:27:25.261Z,19.50
2022-08-05T05:30:15.539Z,19.50
2022-08-05T05:32:56.455Z,19.50
2022-08-05T05:35:23.199Z,19.50
2022-08-05T05:38:00.068Z,19.50
2022-08-05T05:40:32.126Z,19.40
2022-08-05T05:42:59.834Z,19.40
2022-08-05T05:45:28.910Z,19.40
2022-08-05T05:48:06.246Z,19.40
2022-08-05T05:50:43.972Z,19.40
2022-08-05T05:53:22.386Z,19.40
2022-08-05T05:56:01.252Z,19.50
2022-08-05T05:58:30.394Z,19.60
2022-08-05T06:01:04.921Z,19.70
2022-08-05T06:04:01.181Z,19.70
2022-08-05T06:06:30.935Z,19.80
2022-08-05T06:09:00.155Z,19.70
2022-08-05T06:11:29.063Z,19.80
2022-08-05T06:13:56.569Z,19.80
2022-08-05T06:16:28.661Z,19.80
2022-08-05T06:19:00.213Z,19.90
2022-08-05T06:21:35.927Z,19.90
2022-08-05T06:24:11.245Z,20.00
2022-08-05T06:26:51.027Z,20.30
2022-08-05T06:29:43.193Z,20.40
2022-08-05T06:32:25.360Z,20.50
2022-08-05T06:34:56.094Z,20.60
2022-08-05T06:37:56.407Z,20.60
2022-08-05T06:40:12.073Z,20.70
2022-08-05T06:42:39.904Z,20.70
2022-08-05T06:45:08.824Z,20.70
2022-08-05T06:48:36.497Z,20.80
2022-08-05T06:50:23.622Z,20.80
2022-08-05T06:53:03.543Z,20.70
2022-08-05T06:55:37.307Z,20.70
2022-08-05T06:58:20.078Z,20.80
2022-08-05T07:00:51.641Z,20.90
2022-08-05T07:03:18.456Z,20.90
2022-08-05T07:05:46.439Z,20.80
2022-08-05T07:08:13.469Z,20.70
2022-08-05T07:10:53.124Z,20.60
2022-08-05T07:13:56.823Z,20.40
2022-08-05T07:18:00.932Z,20.40
2022-08-05T07:20:16.815Z,20.40
2022-08-05T07:22:15.967Z,20.40
2022-08-05T07:24:44.048Z,20.40
2022-08-05T07:27:19.410Z,20.40
2022-08-05T07:30:23.946Z,20.30
2022-08-05T07:32:38.413Z,20.40
2022-08-05T07:36:03.792Z,20.40
2022-08-05T07:37:56.319Z,20.50
2022-08-05T07:40:32.223Z,20.50
2022-08-05T07:42:59.515Z,20.50
2022-08-05T07:45:57.739Z,20.60
2022-08-05T07:49:02.006Z,20.70
2022-08-05T07:51:08.705Z,20.80
2022-08-05T07:53:51.652Z,20.90
2022-08-05T07:57:01.236Z,21.00
2022-08-05T07:59:05.364Z,21.10
2022-08-05T08:01:35.452Z,21.30
2022-08-05T08:04:08.365Z,21.40
2022-08-05T08:06:35.034Z,21.60
2022-08-05T08:09:01.744Z,21.70
2022-08-05T08:11:48.192Z,21.90
2022-08-05T08:14:18.259Z,22.10
2022-08-05T08:16:51.391Z,22.30
2022-08-05T08:20:22.726Z,22.50
2022-08-05T08:22:09.013Z,22.50
2022-08-05T08:24:51.565Z,22.60
2022-08-05T08:27:18.898Z,22.70
2022-08-05T08:30:05.728Z,22.70
2022-08-05T08:32:36.103Z,22.80
2022-08-05T08:35:13.630Z,22.90
2022-08-05T08:37:45.069Z,23.00
2022-08-05T08:40:12.592Z,23.00
2022-08-05T08:42:50.525Z,23.00
2022-08-05T08:45:26.811Z,22.80
2022-08-05T08:48:12.635Z,22.60
2022-08-05T08:51:04.034Z,22.40
2022-08-05T08:53:37.693Z,22.70
2022-08-05T08:56:07.300Z,23.10
2022-08-05T08:58:37.534Z,23.40
2022-08-05T09:01:16.602Z,23.80
2022-08-05T09:03:46.782Z,24.00
2022-08-05T09:06:17.164Z,24.10
2022-08-05T09:08:46.754Z,24.20
2022-08-05T09:11:14.961Z,24.20
2022-08-05T09:14:00.632Z,24.30
2022-08-05T09:16:29.957Z,24.40
2022-08-05T09:18:59.501Z,24.50
2022-08-05T09:22:22.427Z,24.70
2022-08-05T09:24:15.686Z,24.80
2022-08-05T09:26:47.528Z,24.90
2022-08-05T09:29:19.010Z,25.00
2022-08-05T09:32:40.933Z,25.10
2022-08-05T09:34:55.140Z,25.20
2022-08-05T09:38:11.927Z,25.10
2022-08-05T09:40:53.582Z,25.10
2022-08-05T09:43:28.156Z,25.40
2022-08-05T09:46:28.336Z,25.50
2022-08-05T09:49:07.887Z,25.20
2022-08-05T09:51:49.469Z,24.90
2022-08-05T09:54:21.127Z,24.70
2022-08-05T09:56:55.979Z,24.50
2022-08-05T09:59:24.478Z,24.30
2022-08-05T10:01:58.025Z,24.20
2022-08-05T10:04:35.701Z,24.00
2022-08-05T10:07:20.481Z,23.90
2022-08-05T10:10:04.363Z,24.00
2022-08-05T10:12:49.382Z,24.00
2022-08-05T10:15:23.247Z,24.20
2022-08-05T10:18:16.745Z,24.20
2022-08-05T10:20:49.866Z,24.50
2022-08-05T10:23:55.159Z,24.70
2022-08-05T10:26:15.801Z,25.00
2022-08-05T10:28:45.055Z,25.50
2022-08-05T10:32:49.112Z,26.00
2022-08-05T10:34:02.348Z,26.30
2022-08-05T10:36:29.938Z,26.40
2022-08-05T10:39:24.464Z,26.20
2022-08-05T10:42:33.525Z,25.90
2022-08-05T10:45:01.832Z,25.90
2022-08-05T10:47:36.356Z,26.10
2022-08-05T10:50:32.364Z,26.10
2022-08-05T10:53:00.970Z,26.00
2022-08-05T10:55:27.932Z,25.90
2022-08-05T10:58:11.391Z,25.70
2022-08-05T11:00:41.973Z,25.50
2022-08-05T11:03:23.011Z,25.40
2022-08-05T11:06:15.493Z,25.40
2022-08-05T11:09:31.854Z,25.50
2022-08-05T11:12:29.307Z,25.40
2022-08-05T11:15:21.431Z,25.40
2022-08-05T11:17:59.134Z,25.30
2022-08-05T11:20:34.130Z,25.40
2022-08-05T11:23:08.991Z,25.40
2022-08-05T11:26:04.789Z,25.30
2022-08-05T11:28:36.035Z,25.20
2022-08-05T11:31:06.231Z,25.20
2022-08-05T11:33:52.610Z,25.20
2022-08-05T11:36:34.611Z,25.30
2022-08-05T11:39:09.268Z,25.40
2022-08-05T11:42:00.745Z,25.60
2022-08-05T11:44:53.134Z,25.60
2022-08-05T11:47:22.115Z,25.50
2022-08-05T11:50:08.535Z,25.40
2022-08-05T11:52:35.252Z,25.30
2022-08-05T11:55:07.448Z,25.10
2022-08-05T11:58:08.423Z,25.10
2022-08-05T12:00:29.110Z,25.20
2022-08-05T12:02:57.693Z,25.20
2022-08-05T12:05:32.252Z,25.00
2022-08-05T12:08:10.228Z,25.00
2022-08-05T12:10:45.744Z,25.10
2022-08-05T12:13:16.353Z,25.10
2022-08-05T12:15:45.258Z,25.30
2022-08-05T12:18:20.565Z,25.40
2022-08-05T12:20:47.533Z,25.40
2022-08-05T12:23:14.476Z,25.30
2022-08-05T12:25:56.772Z,25.30
2022-08-05T12:28:31.447Z,25.20
2022-08-05T12:31:01.923Z,25.10
2022-08-05T12:33:36.486Z,25.00
2022-08-05T12:36:06.962Z,25.00
2022-08-05T12:38:34.142Z,25.00
2022-08-05T12:41:13.206Z,25.00
2022-08-05T12:43:58.500Z,24.90
2022-08-05T12:46:31.441Z,25.00
2022-08-05T12:49:14.938Z,25.10
2022-08-05T12:52:12.472Z,25.00
2022-08-05T12:54:48.650Z,25.00
2022-08-05T12:57:17.117Z,25.00
2022-08-05T13:01:57.647Z,25.00
2022-08-05T13:02:41.536Z,25.00
2022-08-05T13:05:12.528Z,25.10
2022-08-05T13:08:00.542Z,25.30
2022-08-05T13:10:28.764Z,25.30
2022-08-05T13:12:57.907Z,25.60
2022-08-05T13:15:36.039Z,25.90
2022-08-05T13:18:08.523Z,25.90
2022-08-05T13:20:35.698Z,26.20
2022-08-05T13:23:07.574Z,26.40
2022-08-05T13:25:51.898Z,26.50
2022-08-05T13:28:22.060Z,26.30
2022-08-05T13:30:48.986Z,26.00
2022-08-05T13:34:21.274Z,25.60
2022-08-05T13:36:06.770Z,25.30
2022-08-05T13:38:38.252Z,25.10
2022-08-05T13:41:11.896Z,25.10
2022-08-05T13:43:44.131Z,25.50
2022-08-05T13:46:13.870Z,25.50
2022-08-05T13:48:58.358Z,25.60
2022-08-05T13:51:47.415Z,25.30
2022-08-05T13:54:16.008Z,25.20
2022-08-05T13:56:45.144Z,25.00
2022-08-05T13:59:24.286Z,24.80
2022-08-05T14:01:56.526Z,24.80
2022-08-05T14:04:51.076Z,25.10
2022-08-05T14:07:59.635Z,25.40
2022-08-05T14:10:30.663Z,25.50
2022-08-05T14:12:58.403Z,25.40
2022-08-05T14:16:04.580Z,25.60
2022-08-05T14:18:14.777Z,25.60
2022-08-05T14:20:46.950Z,25.40
2022-08-05T14:23:15.332Z,25.00
2022-08-05T14:25:54.014Z,24.70
2022-08-05T14:28:26.404Z,24.40
2022-08-05T14:30:54.455Z,24.30
2022-08-05T14:33:22.859Z,24.20
2022-08-05T14:35:51.871Z,24.20
2022-08-05T14:38:33.242Z,24.20
2022-08-05T14:41:06.249Z,24.10
2022-08-05T14:43:59.570Z,24.10
2022-08-05T14:46:23.426Z,24.00
2022-08-05T14:48:58.070Z,24.00
2022-08-05T14:51:25.483Z,24.00
2022-08-05T14:54:26.370Z,24.20
2022-08-05T14:56:47.030Z,24.00
2022-08-05T14:59:14.671Z,23.90
2022-08-05T15:01:48.251Z,23.70
2022-08-05T15:04:16.826Z,23.40
2022-08-05T15:06:49.482Z,23.30
2022-08-05T15:09:51.042Z,23.10
2022-08-05T15:12:05.669Z,23.10
2022-08-05T15:14:48.458Z,23.20
2022-08-05T15:17:46.058Z,23.40
2022-08-05T15:20:18.677Z,23.70
2022-08-05T15:22:54.104Z,23.60
2022-08-05T15:25:41.202Z,23.40
2022-08-05T15:28:14.414Z,23.30
2022-08-05T15:30:46.661Z,23.40
2022-08-05T15:34:05.909Z,23.40
2022-08-05T15:36:17.678Z,23.10
2022-08-05T15:40:59.591Z,22.90
2022-08-05T15:41:57.977Z,22.70
2022-08-05T15:44:25.992Z,22.80
2022-08-05T15:46:54.607Z,22.90
2022-08-05T15:49:40.968Z,23.00
2022-08-05T15:52:12.665Z,23.00
2022-08-05T15:54:43.781Z,23.10
2022-08-05T15:57:10.922Z,23.40
2022-08-05T15:59:39.291Z,23.30
2022-08-05T16:02:09.762Z,23.10
2022-08-05T16:04:42.328Z,23.00
2022-08-05T16:07:10.788Z,23.10
2022-08-05T16:09:37.837Z,23.20
2022-08-05T16:12:11.484Z,23.00
2022-08-05T16:14:38.955Z,22.90
2022-08-05T16:17:05.919Z,22.90
2022-08-05T16:20:05.554Z,23.10
2022-08-05T16:22:27.584Z,23.10
2022-08-05T16:25:00.483Z,23.30
2022-08-05T16:28:00.690Z,23.40
2022-08-05T16:30:25.712Z,23.30
2022-08-05T16:32:54.099Z,23.20
2022-08-05T16:35:27.747Z,23.20
2022-08-05T16:38:15.338Z,23.30
2022-08-05T16:40:52.155Z,23.30
2022-08-05T16:43:24.043Z,23.20
2022-08-05T16:46:04.152Z,23.30
2022-08-05T16:48:38.561Z,23.10
2022-08-05T16:51:09.423Z,22.90
2022-08-05T16:54:02.457Z,22.80
2022-08-05T16:56:29.354Z,22.70
2022-08-05T16:58:57.106Z,22.70
2022-08-05T17:01:27.001Z,22.80
2022-08-05T17:04:13.513Z,22.70
2022-08-05T17:06:42.028Z,22.50
2022-08-05T17:09:08.725Z,22.30
2022-08-05T17:11:36.022Z,22.00
2022-08-05T17:14:34.307Z,21.70
2022-08-05T17:17:03.973Z,21.60
2022-08-05T17:19:31.504Z,21.60
2022-08-05T17:21:58.516Z,21.60
2022-08-05T17:24:36.498Z,21.50
2022-08-05T17:27:07.393Z,21.50
2022-08-05T17:29:41.150Z,21.40
2022-08-05T17:32:17.185Z,21.40
2022-08-05T17:34:46.207Z,21.40
2022-08-05T17:37:29.532Z,21.30
2022-08-05T17:40:10.682Z,21.20
2022-08-05T17:42:41.713Z,21.20
2022-08-05T17:45:20.185Z,21.10
2022-08-05T17:47:53.486Z,21.10
2022-08-05T17:50:28.459Z,21.00
2022-08-05T17:53:01.633Z,21.00
2022-08-05T17:55:34.697Z,20.90
2022-08-05T17:58:06.813Z,20.80
2022-08-05T18:00:34.483Z,20.70
2022-08-05T18:03:02.225Z,20.60
2022-08-05T18:05:35.552Z,20.50
2022-08-05T18:08:03.534Z,20.40
2022-08-05T18:10:32.114Z,20.40
2022-08-05T18:13:00.458Z,20.40
2022-08-05T18:15:31.182Z,20.40
2022-08-05T18:18:07.767Z,20.40
2022-08-05T18:20:38.125Z,20.30
2022-08-05T18:23:11.154Z,20.30
2022-08-05T18:25:47.900Z,20.30
2022-08-05T18:28:28.231Z,20.20
2022-08-05T18:30:55.268Z,20.00
2022-08-05T18:33:22.970Z,19.90
2022-08-05T18:36:03.320Z,19.80
2022-08-05T18:38:39.742Z,19.80
2022-08-05T18:41:55.276Z,19.70
2022-08-05T18:43:54.203Z,19.70
2022-08-05T18:46:20.945Z,19.60
2022-08-05T18:48:52.341Z,19.40
2022-08-05T18:52:06.204Z,19.30
2022-08-05T18:54:30.989Z,19.30
2022-08-05T18:56:59.695Z,19.10
2022-08-05T18:59:43.750Z,19.00
2022-08-05T19:02:28.616Z,19.00
2022-08-05T19:05:02.395Z,18.90
2022-08-05T19:07:50.332Z,18.90
2022-08-05T19:10:19.142Z,18.90
2022-08-05T19:12:55.011Z,18.80
2022-08-05T19:15:57.059Z,18.70
2022-08-05T19:18:13.686Z,18.70
2022-08-05T19:20:51.530Z,18.60
2022-08-05T19:24:05.880Z,18.60
2022-08-05T19:26:05.091Z,18.50
2022-08-05T19:28:41.689Z,18.50
2022-08-05T19:31:09.218Z,18.40
2022-08-05T19:33:48.761Z,18.40
2022-08-05T19:36:23.373Z,18.30
2022-08-05T19:38:50.063Z,18.30
2022-08-05T19:41:16.782Z,18.30
2022-08-05T19:44:05.529Z,18.20
2022-08-05T19:46:35.556Z,18.20
2022-08-05T19:49:07.132Z,18.20
2022-08-05T19:52:08.546Z,18.10
2022-08-05T19:54:31.064Z,18.10
2022-08-05T19:57:06.568Z,18.10
2022-08-05T19:59:56.267Z,18.00
2022-08-05T20:02:26.199Z,18.00
2022-08-05T20:04:55.307Z,17.90
2022-08-05T20:07:47.980Z,17.90
2022-08-05T20:10:17.015Z,17.90
2022-08-05T20:12:46.358Z,17.90
2022-08-05T20:15:48.177Z,17.80
2022-08-05T20:18:11.005Z,17.80
2022-08-05T20:20:51.972Z,17.70
2022-08-05T20:23:23.744Z,17.70
2022-08-05T20:26:07.969Z,17.70
2022-08-05T20:28:43.155Z,17.60
2022-08-05T20:31:09.816Z,17.60
2022-08-05T20:33:42.570Z,17.60
2022-08-05T20:36:10.155Z,17.60
2022-08-05T20:38:40.839Z,17.50
2022-08-05T20:41:26.888Z,17.50
2022-08-05T20:43:59.528Z,17.50
2022-08-05T20:46:29.923Z,17.50
2022-08-05T20:48:56.883Z,17.40
2022-08-05T20:51:23.624Z,17.40
2022-08-05T20:53:56.389Z,17.30
2022-08-05T20:56:28.813Z,17.30
2022-08-05T20:58:56.808Z,17.30
2022-08-05T21:01:37.351Z,17.30
2022-08-05T21:04:10.664Z,17.20
2022-08-05T21:06:45.236Z,17.20
2022-08-05T21:09:15.755Z,17.10
2022-08-05T21:12:06.752Z,17.10
2022-08-05T21:14:31.409Z,17.10
2022-08-05T21:17:03.147Z,17.10
2022-08-05T21:19:47.606Z,17.00
2022-08-05T21:22:23.104Z,17.00
2022-08-05T21:24:54.389Z,17.00
2022-08-05T21:27:25.239Z,17.00
2022-08-05T21:29:56.527Z,16.90
2022-08-05T21:32:27.150Z,16.90
2022-08-05T21:35:08.958Z,16.90
2022-08-05T21:37:42.433Z,16.90
2022-08-05T21:40:14.242Z,16.80
2022-08-05T21:42:44.527Z,16.80
2022-08-05T21:45:24.802Z,16.70
2022-08-05T21:47:55.656Z,16.70
2022-08-05T21:50:24.279Z,16.70
2022-08-05T21:52:51.072Z,16.60
2022-08-05T21:55:42.700Z,16.60
2022-08-05T21:58:06.532Z,16.60
2022-08-05T22:00:33.298Z,16.50
2022-08-05T22:03:00.550Z,16.40
2022-08-05T22:05:27.616Z,16.40
2022-08-05T22:08:02.085Z,16.40
2022-08-05T22:10:29.422Z,16.30
2022-08-05T22:13:09.182Z,16.30
2022-08-05T22:16:02.728Z,16.30
2022-08-05T22:18:33.263Z,16.30
2022-08-05T22:21:00.699Z,16.30
2022-08-05T22:24:01.382Z,16.30
2022-08-05T22:26:50.011Z,16.30
2022-08-05T22:29:18.664Z,16.20
2022-08-05T22:31:45.722Z,16.20
2022-08-05T22:34:28.428Z,16.10
2022-08-05T22:36:58.313Z,16.10
2022-08-05T22:39:33.261Z,16.10
2022-08-05T22:42:09.401Z,16.10
2022-08-05T22:44:40.461Z,16.00
2022-08-05T22:47:09.370Z,16.00
2022-08-05T22:50:22.974Z,16.00
2022-08-05T22:52:32.654Z,15.90
2022-08-05T22:55:01.786Z,15.90
2022-08-05T22:57:34.051Z,15.90
2022-08-05T23:00:01.069Z,15.90
2022-08-05T23:02:30.232Z,15.90
2022-08-05T23:05:01.745Z,15.90
2022-08-05T23:07:32.118Z,15.90
2022-08-05T23:10:02.227Z,15.80
2022-08-05T23:12:32.861Z,15.80
2022-08-05T23:15:03.615Z,15.80
2022-08-05T23:17:34.887Z,15.80
2022-08-05T23:20:16.500Z,15.80
2022-08-05T23:22:47.164Z,15.80
2022-08-05T23:25:53.200Z,15.80
2022-08-05T23:28:06.895Z,15.70
2022-08-05T23:30:40.369Z,15.70
2022-08-05T23:33:21.982Z,15.70
2022-08-05T23:35:55.960Z,15.70
2022-08-05T23:38:24.384Z,15.70
2022-08-05T23:40:52.625Z,15.60
2022-08-05T23:43:25.066Z,15.60
2022-08-05T23:46:21.209Z,15.60
2022-08-05T23:49:00.678Z,15.60
2022-08-05T23:51:52.690Z,15.60
2022-08-05T23:54:30.263Z,15.50
2022-08-05T23:57:04.592Z,15.50
2022-08-05T23:59:37.621Z,15.50
